createdAt,value
2023-06-07T00:02:15.332Z,9.42
2023-06-07T00:04:46.526Z,9.41
2023-06-07T00:07:13.599Z,9.44
2023-06-07T00:09:40.360Z,9.37
2023-06-07T00:12:07.774Z,9.42
2023-06-07T00:14:34.657Z,9.43
2023-06-07T00:17:01.387Z,9.44
2023-06-07T00:19:28.845Z,9.34
2023-06-07T00:21:56.206Z,9.17
2023-06-07T00:24:23.107Z,9.28
2023-06-07T00:26:51.241Z,9.22
2023-06-07T00:29:18.244Z,9.37
2023-06-07T00:31:45.114Z,9.16
2023-06-07T00:34:12.020Z,9.19
2023-06-07T00:36:38.799Z,9.27
2023-06-07T00:39:05.879Z,9.24
2023-06-07T00:41:32.581Z,9.32
2023-06-07T00:43:59.371Z,9.33
2023-06-07T00:46:29.961Z,9.22
2023-06-07T00:48:58.455Z,9.17
2023-06-07T00:51:29.255Z,9.15
2023-06-07T00:53:59.511Z,9.04
2023-06-07T00:56:27.581Z,8.81
2023-06-07T00:58:54.451Z,8.94
2023-06-07T01:01:21.225Z,8.98
2023-06-07T01:03:48.124Z,9.00
2023-06-07T01:06:15.008Z,9.06
2023-06-07T01:08:43.251Z,9.01
2023-06-07T01:11:11.715Z,8.69
2023-06-07T01:13:40.443Z,8.68
2023-06-07T01:16:09.477Z,8.74
2023-06-07T01:18:37.234Z,8.63
2023-06-07T01:21:05.169Z,8.61
2023-06-07T01:23:38.069Z,8.61
2023-06-07T01:26:05.632Z,8.62
2023-06-07T01:28:39.095Z,8.70
2023-06-07T01:31:06.581Z,8.77
2023-06-07T01:33:34.690Z,8.81
2023-06-07T01:36:02.859Z,8.91
2023-06-07T01:38:32.682Z,8.98
2023-06-07T01:41:01.434Z,8.86
2023-06-07T01:43:29.269Z,8.93
2023-06-07T01:45:56.978Z,8.90
2023-06-07T01:48:24.255Z,8.89
2023-06-07T01:50:50.983Z,8.84
2023-06-07T01:53:17.763Z,8.85
2023-06-07T01:55:44.583Z,8.80
2023-06-07T01:58:34.319Z,8.72
2023-06-07T02:01:26.021Z,8.58
2023-06-07T02:03:55.581Z,8.60
2023-06-07T02:06:31.662Z,8.58
2023-06-07T02:09:07.381Z,8.50
2023-06-07T02:11:35.669Z,8.71
2023-06-07T02:14:02.506Z,8.77
2023-06-07T02:16:41.068Z,8.71
2023-06-07T02:19:08.936Z,8.68
2023-06-07T02:21:37.671Z,8.64
2023-06-07T02:24:07.925Z,8.53
2023-06-07T02:26:34.701Z,8.50
2023-06-07T02:29:01.391Z,8.46
2023-06-07T02:31:28.275Z,8.52
2023-06-07T02:33:55.313Z,8.49
2023-06-07T02:36:22.583Z,8.53
2023-06-07T02:38:49.855Z,8.55
2023-06-07T02:41:26.073Z,8.53
2023-06-07T02:43:52.937Z,8.41
2023-06-07T02:46:19.688Z,8.32
2023-06-07T02:48:46.432Z,8.35
2023-06-07T02:51:14.587Z,8.44
2023-06-07T02:53:41.323Z,8.48
2023-06-07T02:56:10.314Z,8.56
2023-06-07T02:58:37.436Z,8.65
2023-06-07T03:01:08.491Z,8.73
2023-06-07T03:03:38.552Z,8.72
2023-06-07T03:06:06.173Z,8.61
2023-06-07T03:08:32.871Z,8.68
2023-06-07T03:10:59.661Z,8.61
2023-06-07T03:13:26.587Z,8.55
2023-06-07T03:15:53.356Z,8.61
2023-06-07T03:18:20.706Z,8.63
2023-06-07T03:20:48.800Z,8.61
2023-06-07T03:23:16.865Z,8.73
2023-06-07T03:25:43.727Z,8.78
2023-06-07T03:28:10.413Z,8.85
2023-06-07T03:30:37.167Z,8.87
2023-06-07T03:33:04.230Z,8.89
2023-06-07T03:35:31.932Z,8.90
2023-06-07T03:37:58.697Z,8.86
2023-06-07T03:40:25.519Z,8.98
2023-06-07T03:42:52.220Z,9.01
2023-06-07T03:45:18.978Z,8.96
2023-06-07T03:47:45.872Z,8.85
2023-06-07T03:50:12.742Z,9.01
2023-06-07T03:52:39.481Z,9.09
2023-06-07T03:55:06.588Z,9.13
2023-06-07T03:57:33.272Z,9.17
2023-06-07T04:00:02.127Z,9.30
2023-06-07T04:02:29.487Z,9.39
2023-06-07T04:04:56.256Z,9.50
2023-06-07T04:07:24.076Z,9.57
2023-06-07T04:09:50.934Z,9.59
2023-06-07T04:12:18.606Z,9.65
2023-06-07T04:14:45.405Z,9.59
2023-06-07T04:17:12.183Z,9.62
2023-06-07T04:19:45.386Z,9.76
2023-06-07T04:22:17.412Z,9.86
2023-06-07T04:24:44.882Z,9.95
2023-06-07T04:27:12.624Z,10.11
2023-06-07T04:29:41.904Z,10.23
2023-06-07T04:32:11.079Z,10.35
2023-06-07T04:34:43.413Z,10.45
2023-06-07T04:37:10.211Z,10.78
2023-06-07T04:39:37.638Z,11.35
2023-06-07T04:42:06.813Z,11.84
2023-06-07T04:44:34.206Z,13.01
2023-06-07T04:47:08.083Z,14.54
2023-06-07T04:49:39.965Z,15.98
2023-06-07T04:52:07.265Z,17.16
2023-06-07T04:54:37.763Z,17.98
2023-06-07T04:57:05.800Z,19.05
2023-06-07T04:59:36.012Z,19.91
2023-06-07T05:02:03.342Z,20.62
2023-06-07T05:04:32.277Z,21.24
2023-06-07T05:06:59.641Z,21.92
2023-06-07T05:09:27.910Z,22.02
2023-06-07T05:11:58.087Z,22.41
2023-06-07T05:14:24.755Z,22.76
2023-06-07T05:16:52.290Z,22.54
2023-06-07T05:19:21.045Z,22.26
2023-06-07T05:21:47.763Z,22.21
2023-06-07T05:24:16.693Z,22.54
2023-06-07T05:26:44.412Z,23.36
2023-06-07T05:29:11.154Z,24.15
2023-06-07T05:31:37.949Z,24.83
2023-06-07T05:34:04.832Z,25.52
2023-06-07T05:36:31.546Z,25.62
2023-06-07T05:38:59.617Z,26.34
2023-06-07T05:41:26.945Z,26.92
2023-06-07T05:43:53.654Z,26.91
2023-06-07T05:46:21.013Z,27.38
2023-06-07T05:48:48.144Z,27.83
2023-06-07T05:51:15.396Z,28.16
2023-06-07T05:53:42.382Z,28.60
2023-06-07T05:56:11.364Z,29.13
2023-06-07T05:58:38.040Z,27.94
2023-06-07T06:01:06.434Z,28.87
2023-06-07T06:03:34.437Z,28.23
2023-06-07T06:06:12.480Z,29.03
2023-06-07T06:08:39.223Z,29.50
2023-06-07T06:11:06.089Z,30.10
2023-06-07T06:13:33.894Z,30.50
2023-06-07T06:16:00.659Z,28.10
2023-06-07T06:18:27.594Z,27.13
2023-06-07T06:20:54.433Z,25.92
2023-06-07T06:23:21.624Z,26.13
2023-06-07T06:25:48.305Z,26.57
2023-06-07T06:28:15.862Z,27.62
2023-06-07T06:30:42.788Z,27.46
2023-06-07T06:33:09.533Z,27.68
2023-06-07T06:35:36.571Z,27.46
2023-06-07T06:38:03.368Z,26.58
2023-06-07T06:40:30.080Z,26.63
2023-06-07T06:42:56.858Z,26.50
2023-06-07T06:45:23.669Z,26.31
2023-06-07T06:47:50.463Z,25.80
2023-06-07T06:52:47.004Z,26.08
2023-06-07T06:55:13.780Z,26.74
2023-06-07T06:57:40.683Z,27.31
2023-06-07T07:00:10.158Z,27.11
2023-06-07T07:02:37.003Z,27.19
2023-06-07T07:05:06.458Z,27.40
2023-06-07T07:07:33.984Z,27.86
2023-06-07T07:10:01.292Z,27.24
2023-06-07T07:12:27.960Z,27.11
2023-06-07T07:14:54.938Z,26.95
2023-06-07T07:17:21.829Z,27.53
2023-06-07T07:19:48.581Z,26.99
2023-06-07T07:22:15.618Z,27.34
2023-06-07T07:24:42.336Z,27.10
2023-06-07T07:27:09.368Z,26.36
2023-06-07T07:29:36.391Z,25.19
2023-06-07T07:32:04.235Z,24.47
2023-06-07T07:34:31.327Z,23.99
2023-06-07T07:37:03.440Z,24.25
2023-06-07T07:39:30.723Z,24.26
2023-06-07T07:41:57.427Z,23.66
2023-06-07T07:44:24.391Z,23.48
2023-06-07T07:46:51.060Z,23.49
2023-06-07T07:49:17.788Z,23.43
2023-06-07T07:51:44.527Z,23.06
2023-06-07T07:54:11.252Z,22.68
2023-06-07T07:56:39.424Z,22.24
2023-06-07T07:59:06.591Z,22.83
2023-06-07T08:01:33.759Z,22.68
2023-06-07T08:04:00.982Z,22.73
2023-06-07T08:06:27.818Z,22.13
2023-06-07T08:08:54.516Z,22.10
2023-06-07T08:11:22.524Z,22.54
2023-06-07T08:13:49.329Z,22.57
2023-06-07T08:16:16.319Z,22.65
2023-06-07T08:18:45.429Z,22.72
2023-06-07T08:21:13.676Z,22.64
2023-06-07T08:23:41.953Z,22.72
2023-06-07T08:26:08.703Z,22.92
2023-06-07T08:28:35.424Z,22.81
2023-06-07T08:31:04.935Z,22.47
2023-06-07T08:33:31.741Z,22.40
2023-06-07T08:35:58.504Z,22.61
2023-06-07T08:38:25.275Z,22.36
2023-06-07T08:40:55.058Z,22.87
2023-06-07T08:43:24.513Z,22.47
2023-06-07T08:45:51.981Z,22.56
2023-06-07T08:48:18.893Z,21.97
2023-06-07T08:50:48.221Z,22.44
2023-06-07T08:53:17.226Z,22.74
2023-06-07T08:55:45.131Z,22.41
2023-06-07T08:58:13.065Z,23.01
2023-06-07T09:00:44.124Z,23.16
2023-06-07T09:03:13.173Z,23.90
2023-06-07T09:05:40.180Z,23.83
2023-06-07T09:08:06.971Z,23.56
2023-06-07T09:10:33.724Z,22.96
2023-06-07T09:13:00.561Z,22.94
2023-06-07T09:15:29.497Z,23.15
2023-06-07T09:18:05.479Z,23.59
2023-06-07T09:20:32.822Z,24.08
2023-06-07T09:23:04.530Z,24.10
2023-06-07T09:25:31.906Z,23.49
2023-06-07T09:27:59.496Z,23.49
2023-06-07T09:30:26.658Z,24.01
2023-06-07T09:32:53.598Z,23.41
2023-06-07T09:35:20.589Z,23.38
2023-06-07T09:37:48.937Z,22.65
2023-06-07T09:40:16.448Z,22.67
2023-06-07T09:42:44.293Z,22.76
2023-06-07T09:45:19.105Z,23.25
2023-06-07T09:47:46.016Z,23.23
2023-06-07T09:50:14.339Z,23.21
2023-06-07T09:52:41.872Z,23.23
2023-06-07T09:55:26.263Z,23.62
2023-06-07T09:57:53.245Z,23.61
2023-06-07T10:00:20.615Z,23.63
2023-06-07T10:02:48.600Z,23.35
2023-06-07T10:05:17.430Z,23.48
2023-06-07T10:07:48.045Z,23.51
2023-06-07T10:10:18.904Z,23.91
2023-06-07T10:12:48.026Z,24.08
2023-06-07T10:15:17.943Z,24.01
2023-06-07T10:18:15.812Z,23.47
2023-06-07T10:20:53.378Z,23.73
2023-06-07T10:23:34.241Z,23.51
2023-06-07T10:26:05.777Z,23.84
2023-06-07T10:28:40.522Z,23.67
2023-06-07T10:31:12.360Z,24.06
2023-06-07T10:33:40.079Z,23.55
2023-06-07T10:36:09.709Z,23.27
2023-06-07T10:38:38.943Z,23.50
2023-06-07T10:41:07.803Z,23.45
2023-06-07T10:43:35.415Z,23.24
2023-06-07T10:46:28.315Z,23.07
2023-06-07T10:48:57.370Z,23.39
2023-06-07T10:51:42.511Z,23.31
2023-06-07T10:54:09.947Z,23.08
2023-06-07T10:56:38.647Z,23.22
2023-06-07T10:59:15.757Z,23.09
2023-06-07T11:01:55.173Z,23.15
2023-06-07T11:04:31.837Z,23.06
2023-06-07T11:07:19.405Z,22.95
2023-06-07T11:10:10.579Z,23.02
2023-06-07T11:12:39.788Z,22.93
2023-06-07T11:15:37.348Z,22.92
2023-06-07T11:18:08.203Z,23.18
2023-06-07T11:20:41.893Z,23.03
2023-06-07T11:23:31.589Z,23.37
2023-06-07T11:26:09.783Z,23.19
2023-06-07T11:28:38.925Z,23.46
2023-06-07T11:31:11.479Z,23.76
2023-06-07T11:33:38.954Z,24.32
2023-06-07T11:36:06.226Z,24.42
2023-06-07T11:38:33.823Z,23.95
2023-06-07T11:41:01.108Z,24.16
2023-06-07T11:43:29.212Z,24.27
2023-06-07T11:45:58.036Z,24.05
2023-06-07T11:48:29.534Z,24.34
2023-06-07T11:50:57.273Z,24.45
2023-06-07T11:53:24.742Z,24.27
2023-06-07T11:55:52.186Z,24.35
2023-06-07T11:58:18.955Z,24.24
2023-06-07T12:00:45.872Z,23.62
2023-06-07T12:03:14.155Z,23.89
2023-06-07T12:05:41.206Z,23.81
2023-06-07T12:08:11.779Z,24.06
2023-06-07T12:10:38.584Z,24.11
2023-06-07T12:13:05.206Z,24.44
2023-06-07T12:15:33.558Z,24.45
2023-06-07T12:18:00.417Z,24.44
2023-06-07T12:20:30.034Z,24.62
2023-06-07T12:23:06.511Z,24.50
2023-06-07T12:25:35.117Z,24.54
2023-06-07T12:28:07.511Z,24.41
2023-06-07T12:30:35.542Z,24.52
2023-06-07T12:33:02.825Z,24.44
2023-06-07T12:35:38.618Z,24.15
2023-06-07T12:38:08.818Z,23.66
2023-06-07T12:40:35.816Z,23.98
2023-06-07T12:43:02.773Z,24.03
2023-06-07T12:45:29.630Z,23.97
2023-06-07T12:47:56.600Z,23.79
2023-06-07T12:50:23.568Z,23.84
2023-06-07T12:52:51.572Z,23.64
2023-06-07T12:55:18.847Z,23.57
2023-06-07T12:57:45.921Z,23.72
2023-06-07T13:00:13.980Z,23.41
2023-06-07T13:02:41.237Z,23.72
2023-06-07T13:05:10.935Z,23.92
2023-06-07T13:07:37.760Z,23.36
2023-06-07T13:10:05.432Z,23.63
2023-06-07T13:12:32.594Z,23.76
2023-06-07T13:14:59.310Z,23.68
2023-06-07T13:17:26.245Z,23.85
2023-06-07T13:19:53.316Z,23.51
2023-06-07T13:22:20.074Z,23.74
2023-06-07T13:24:47.201Z,23.47
2023-06-07T13:27:13.982Z,23.81
2023-06-07T13:29:40.778Z,23.74
2023-06-07T13:32:08.010Z,23.77
2023-06-07T13:34:34.981Z,23.37
2023-06-07T13:37:01.942Z,23.44
2023-06-07T13:39:28.669Z,23.62
2023-06-07T13:41:55.565Z,23.55
2023-06-07T13:44:22.654Z,23.18
2023-06-07T13:46:52.856Z,23.07
2023-06-07T13:49:20.440Z,23.38
2023-06-07T13:51:47.467Z,23.40
2023-06-07T13:54:23.917Z,23.41
2023-06-07T13:56:51.440Z,23.28
2023-06-07T13:59:18.315Z,23.37
2023-06-07T14:01:45.458Z,23.28
2023-06-07T14:04:12.272Z,23.19
2023-06-07T14:06:40.313Z,23.00
2023-06-07T14:09:07.611Z,22.63
2023-06-07T14:11:35.626Z,22.47
2023-06-07T14:14:02.525Z,22.60
2023-06-07T14:16:29.353Z,22.67
2023-06-07T14:18:56.519Z,22.61
2023-06-07T14:21:23.381Z,22.67
2023-06-07T14:23:50.248Z,22.75
2023-06-07T14:26:17.092Z,22.79
2023-06-07T14:28:45.063Z,22.89
2023-06-07T14:31:12.268Z,22.72
2023-06-07T14:33:38.988Z,22.73
2023-06-07T14:36:06.431Z,22.61
2023-06-07T14:38:33.228Z,22.69
2023-06-07T14:40:59.957Z,22.53
2023-06-07T14:43:26.678Z,22.45
2023-06-07T14:45:53.425Z,22.38
2023-06-07T14:48:20.135Z,22.42
2023-06-07T14:50:46.862Z,22.25
2023-06-07T14:53:13.648Z,22.38
2023-06-07T14:55:40.487Z,22.11
2023-06-07T14:58:07.284Z,21.74
2023-06-07T15:00:34.848Z,21.75
2023-06-07T15:03:01.811Z,21.83
2023-06-07T15:05:29.609Z,21.86
2023-06-07T15:07:56.868Z,21.84
2023-06-07T15:10:23.718Z,21.72
2023-06-07T15:12:50.464Z,21.72
2023-06-07T15:15:17.522Z,21.68
2023-06-07T15:17:46.441Z,21.66
2023-06-07T15:20:14.418Z,21.65
2023-06-07T15:22:41.254Z,21.62
2023-06-07T15:25:08.825Z,21.57
2023-06-07T15:27:36.940Z,21.47
2023-06-07T15:30:04.856Z,21.39
2023-06-07T15:32:32.850Z,21.31
2023-06-07T15:35:00.073Z,21.32
2023-06-07T15:37:26.893Z,21.34
2023-06-07T15:39:54.098Z,21.10
2023-06-07T15:42:21.112Z,21.14
2023-06-07T15:44:47.942Z,21.08
2023-06-07T15:47:16.401Z,20.89
2023-06-07T15:49:44.266Z,21.08
2023-06-07T15:52:11.141Z,20.90
2023-06-07T15:54:37.853Z,20.94
2023-06-07T15:57:07.195Z,20.89
2023-06-07T15:59:36.246Z,20.76
2023-06-07T16:02:03.617Z,20.82
2023-06-07T16:04:30.396Z,20.82
2023-06-07T16:06:57.292Z,20.70
2023-06-07T16:09:24.047Z,20.67
2023-06-07T16:11:50.979Z,20.69
2023-06-07T16:14:18.997Z,20.64
2023-06-07T16:16:46.203Z,20.50
2023-06-07T16:19:13.419Z,20.40
2023-06-07T16:21:40.293Z,20.30
2023-06-07T16:24:08.547Z,20.20
2023-06-07T16:26:35.953Z,20.19
2023-06-07T16:29:05.552Z,19.98
2023-06-07T16:31:32.596Z,19.92
2023-06-07T16:34:00.117Z,19.90
2023-06-07T16:36:26.924Z,19.68
2023-06-07T16:38:53.748Z,19.68
2023-06-07T16:41:24.036Z,19.60
2023-06-07T16:43:51.338Z,19.63
2023-06-07T16:46:18.383Z,19.56
2023-06-07T16:48:45.190Z,19.48
2023-06-07T16:51:15.746Z,19.34
2023-06-07T16:53:42.437Z,19.28
2023-06-07T16:56:09.174Z,19.23
2023-06-07T16:58:35.951Z,19.15
2023-06-07T17:01:02.737Z,19.06
2023-06-07T17:03:29.575Z,19.05
2023-06-07T17:05:56.496Z,18.96
2023-06-07T17:08:23.219Z,18.73
2023-06-07T17:10:49.915Z,18.66
2023-06-07T17:13:17.103Z,18.48
2023-06-07T17:15:43.925Z,18.35
2023-06-07T17:18:13.829Z,18.27
2023-06-07T17:20:42.197Z,18.25
2023-06-07T17:23:09.369Z,18.08
2023-06-07T17:25:36.435Z,18.04
2023-06-07T17:28:03.601Z,17.95
2023-06-07T17:30:31.398Z,17.88
2023-06-07T17:32:58.411Z,17.91
2023-06-07T17:35:25.366Z,17.80
2023-06-07T17:37:52.134Z,17.74
2023-06-07T17:40:18.875Z,17.52
2023-06-07T17:42:45.627Z,17.49
2023-06-07T17:45:12.395Z,17.26
2023-06-07T17:47:52.962Z,17.07
2023-06-07T17:50:33.045Z,17.15
2023-06-07T17:53:09.370Z,17.04
2023-06-07T17:55:36.390Z,16.97
2023-06-07T17:58:03.061Z,16.88
2023-06-07T18:00:29.765Z,16.95
2023-06-07T18:02:56.620Z,16.77
2023-06-07T18:05:23.584Z,16.61
2023-06-07T18:07:52.572Z,16.63
2023-06-07T18:10:19.257Z,16.44
2023-06-07T18:12:46.113Z,16.44
2023-06-07T18:15:13.141Z,16.32
2023-06-07T18:17:39.873Z,16.14
2023-06-07T18:20:07.967Z,16.00
2023-06-07T18:22:35.136Z,15.99
2023-06-07T18:25:01.805Z,15.97
2023-06-07T18:27:29.147Z,15.71
2023-06-07T18:29:55.975Z,15.82
2023-06-07T18:32:22.740Z,15.53
2023-06-07T18:34:51.737Z,15.42
2023-06-07T18:37:18.579Z,15.32
2023-06-07T18:39:45.421Z,15.48
2023-06-07T18:42:14.374Z,15.35
2023-06-07T18:44:43.224Z,15.38
2023-06-07T18:47:09.977Z,15.38
2023-06-07T18:49:36.690Z,15.26
2023-06-07T18:52:08.237Z,15.31
2023-06-07T18:54:35.045Z,15.25
2023-06-07T18:57:03.531Z,15.07
2023-06-07T18:59:30.401Z,14.76
2023-06-07T19:01:58.642Z,14.62
2023-06-07T19:04:29.427Z,14.69
2023-06-07T19:06:56.710Z,14.73
2023-06-07T19:09:23.720Z,14.63
2023-06-07T19:11:50.530Z,14.67
2023-06-07T19:14:19.342Z,14.41
2023-06-07T19:16:49.291Z,14.33
2023-06-07T19:19:16.392Z,14.29
2023-06-07T19:21:43.208Z,14.17
2023-06-07T19:24:09.983Z,14.07
2023-06-07T19:26:36.751Z,14.12
2023-06-07T19:29:04.230Z,14.18
2023-06-07T19:31:31.080Z,14.08
2023-06-07T19:33:58.250Z,14.06
2023-06-07T19:36:25.052Z,13.97
2023-06-07T19:38:53.937Z,13.70
2023-06-07T19:41:21.037Z,13.69
2023-06-07T19:43:49.042Z,13.51
2023-06-07T19:46:15.866Z,13.53
2023-06-07T19:48:45.932Z,13.38
2023-06-07T19:51:13.191Z,13.36
2023-06-07T19:53:40.156Z,13.39
2023-06-07T19:56:06.956Z,13.40
2023-06-07T19:58:35.619Z,13.28
2023-06-07T20:01:02.378Z,13.32
2023-06-07T20:03:29.114Z,13.15
2023-06-07T20:05:55.925Z,12.88
2023-06-07T20:08:22.638Z,12.91
2023-06-07T20:10:49.423Z,12.67
2023-06-07T20:13:18.264Z,12.82
2023-06-07T20:15:46.174Z,12.81
2023-06-07T20:18:13.008Z,12.93
2023-06-07T20:20:39.822Z,12.99
2023-06-07T20:23:06.866Z,12.80
2023-06-07T20:25:33.927Z,12.87
2023-06-07T20:28:00.908Z,12.46
2023-06-07T20:30:27.920Z,12.47
2023-06-07T20:32:54.713Z,12.38
2023-06-07T20:35:21.468Z,12.49
2023-06-07T20:37:48.936Z,12.45
2023-06-07T20:40:15.893Z,12.55
2023-06-07T20:42:42.642Z,12.57
2023-06-07T20:45:09.725Z,12.69
2023-06-07T20:47:36.437Z,12.75
2023-06-07T20:50:03.391Z,12.72
2023-06-07T20:52:30.700Z,12.67
2023-06-07T20:54:58.368Z,12.34
2023-06-07T20:57:25.063Z,12.19
2023-06-07T20:59:51.780Z,12.22
2023-06-07T21:02:18.446Z,12.31
2023-06-07T21:04:45.290Z,12.31
2023-06-07T21:07:11.999Z,12.25
2023-06-07T21:09:38.756Z,12.23
2023-06-07T21:12:07.712Z,12.21
2023-06-07T21:14:34.656Z,12.18
2023-06-07T21:17:02.186Z,12.13
2023-06-07T21:19:28.945Z,12.09
2023-06-07T21:21:55.671Z,12.06
2023-06-07T21:24:22.376Z,12.00
2023-06-07T21:26:49.173Z,12.01
2023-06-07T21:29:15.941Z,12.00
2023-06-07T21:31:42.695Z,11.88
2023-06-07T21:34:10.106Z,11.89
2023-06-07T21:36:37.505Z,11.86
2023-06-07T21:39:04.203Z,11.80
2023-06-07T21:41:31.137Z,11.74
2023-06-07T21:43:57.922Z,11.64
2023-06-07T21:46:24.735Z,11.60
2023-06-07T21:48:51.644Z,11.59
2023-06-07T21:51:18.405Z,11.61
2023-06-07T21:53:45.443Z,11.55
2023-06-07T21:56:12.230Z,11.45
2023-06-07T21:58:38.937Z,11.20
2023-06-07T22:01:05.995Z,11.26
2023-06-07T22:03:33.459Z,11.22
2023-06-07T22:06:01.853Z,11.27
2023-06-07T22:08:29.004Z,11.29
2023-06-07T22:10:55.883Z,11.33
2023-06-07T22:13:22.590Z,11.33
2023-06-07T22:15:51.837Z,11.26
2023-06-07T22:18:21.978Z,11.20
2023-06-07T22:20:50.636Z,11.16
2023-06-07T22:23:17.520Z,11.10
2023-06-07T22:25:44.969Z,11.06
2023-06-07T22:28:14.179Z,10.90
2023-06-07T22:30:42.208Z,10.94
2023-06-07T22:33:10.061Z,10.94
2023-06-07T22:35:37.719Z,10.98
2023-06-07T22:38:06.813Z,10.98
2023-06-07T22:40:35.818Z,10.94
2023-06-07T22:43:02.744Z,10.82
2023-06-07T22:45:29.645Z,10.63
2023-06-07T22:48:10.968Z,10.68
2023-06-07T22:50:40.890Z,10.77
2023-06-07T22:53:13.405Z,10.46
2023-06-07T22:55:41.758Z,10.27
2023-06-07T22:58:08.637Z,10.30
2023-06-07T23:00:36.471Z,10.38
2023-06-07T23:03:07.588Z,10.36
2023-06-07T23:05:35.572Z,10.27
2023-06-07T23:08:02.609Z,10.34
2023-06-07T23:10:37.161Z,10.39
2023-06-07T23:13:10.276Z,10.48
2023-06-07T23:15:42.201Z,10.69
2023-06-07T23:18:10.037Z,10.62
2023-06-07T23:20:36.794Z,10.68
2023-06-07T23:23:06.748Z,10.57
2023-06-07T23:25:33.478Z,10.57
2023-06-07T23:28:00.192Z,10.45
2023-06-07T23:30:27.502Z,10.44
2023-06-07T23:32:54.502Z,10.36
2023-06-07T23:35:21.637Z,10.25
2023-06-07T23:37:49.050Z,10.30
2023-06-07T23:40:19.334Z,10.16
2023-06-07T23:42:46.542Z,9.86
2023-06-07T23:45:14.133Z,10.02
2023-06-07T23:47:41.457Z,10.07
2023-06-07T23:50:09.292Z,10.11
2023-06-07T23:52:39.744Z,10.14
2023-06-07T23:55:06.813Z,9.62
2023-06-07T23:57:33.538Z,9.70
